Flight AZ1384

 

  • Submitted By: Maurizio Fadda
  • Departure Airport: Aeroporto Cristoforo Colombo (LIMJ)
  • Arrival Airport: Leonardo da Vinci (LIRF)
  • Aircraft: A319-112 (EI-IMB)
  • Flight Time: 01.49.45
  • Date Submitted: 06/01/2015
  • Route: UNITA UL50 ELB UL146 ELKAP
  • Status: Accepted
Flight Details
Gross Revenue:
(132 load / € 280.00 per unit
€ 36,960.00
Fuel Cost:
(2844.93 fuel used @ 1.1 / unit)
€ 3,129.42
Flight Details

 

  • Log Data: -
  • Network: -
Additional Log Information:

 

View Log

[12:00] - Feelthere A319-111 Alitalia EI-IMU
[12:00] - Flight AZ1384 is ready to depart LIMJ with a final destination of LIRF.
[12:00] - Simulator Paused
[12:00] - Parking Brake Applied
[12:00] - Boarding
[12:01] - Simulator Un-Paused
[12:28] - Pushing Back from the gate
[12:28] - Parking Brake Released
[12:29] - Parking Brake Applied
[12:31] - Parking Brake Released
[12:32] - Taxiing to Runway
[12:35] - Flaps to position 2
[12:36] - Flaps to position 3
[12:39] - Taking Off with 132 passengers on board
[12:39] - Take off at 137kts, with a pitch of 6deg and 4728kgs of fuel on board
[12:39] - Wind Heading 232 | Wind Speed 3kts | Temperature 14 deg C
[12:39] - AutoPilot Engaged at 325AGL
[12:40] - Gear up at 538AGL
[12:40] - Climbing to TOC
[12:41] - Flaps to position 2 at 3104ft and 154kts
[12:41] - Flaps to position 0 at 3983ft and 173kts
[12:54] - TOC reached
[12:54] - Cruise started
[13:07] - TOD reached
[13:07] - Descending to destination
[13:21] - Landing Shortly
[13:23] - Flaps to position 1 at 4104ft and 226kts
[13:24] - Flaps to position 3 at 3602ft and 200kts
[13:27] - Flaps to position 4 at 3123ft and 150kts
[13:30] - Flaps to position 5 at 3058ft and 137kts
[13:34] - Gear down at 1191AGL
[13:36] - AutoPilot Disengaged at 230AGL
[13:36] - Landed at 111 kias, at -31fpm. With 2481kgs of fuel onboard and a pitch angle of 4deg.
[13:36] - Wind Heading 293 | Wind Speed 4kts | Temperature 13 deg C
[13:36] - Spoilers ON 10ft, hdg 336 and 90kts
[13:36] - Spoilers OFF 10ft, hdg 334 and 65kts
[13:37] - Taxiing to Gate
[13:38] - Flaps to position 4
[13:38] - Flaps to position 3
[13:39] - Flaps to position 2
[13:39] - Flaps to position 1
[13:39] - Flaps to position 0
[13:45] - Parking Brake Applied
[13:45] - Arrived safely at LIRF. We hope you enjoyed your flight!
[13:52] - Simulator Paused
[13:52] - Feelthere A319-111 Alitalia EI-IMU
[13:52] - MaxSim Rate: 1x
[13:52] - ver 1.0.1.8

Comments

Commenter Comment
Maurizio Fadda Regular takeoff runway 28 LIMJ,Sid UNIT7K,regula landing runway ILS34L LIRF,Star TAQ1D. Weather:LIMJ 061050Z 19004KT 160V230 9999 SCT030 15/09 Q1024 LIRF 061150Z VRB03KT 9999 SCT035 14/05 Q1023 NOSIG
Route Map